Time;durP1;ratioP1;P1;durP2;ratioP2;P2;SDS_P1;SDS_P2;PMS_P1;PMS_P2;Temp;Humidity;BMP_temperature;BMP_pressure;BME280_temperature;BME280_humidity;BME280_pressure;Samples;Min_cycle;Max_cycle;Signal;HPM_P1;HPM_P2
2022/03/26 00:01:38;;;;;;;27.23;15.10;;;11.40;99.90;;;;;;5098615;28;20471;-53
2022/03/26 00:04:07;;;;;;;33.47;15.93;;;11.30;99.90;;;;;;5098783;28;20545;-49
2022/03/26 00:06:34;;;;;;;30.13;16.70;;;11.30;99.90;;;;;;5098525;28;20477;-52
2022/03/26 00:09:07;;;;;;;27.70;17.33;;;11.30;99.90;;;;;;5098414;28;20472;-52
2022/03/26 00:11:33;;;;;;;29.50;16.00;;;11.30;99.90;;;;;;5098682;28;20470;-55
2022/03/26 00:14:02;;;;;;;25.50;14.80;;;11.30;99.90;;;;;;5098677;28;20430;-51
2022/03/26 00:16:30;;;;;;;23.63;14.77;;;11.30;99.90;;;;;;5098271;28;20454;-51
2022/03/26 00:18:57;;;;;;;28.93;15.50;;;11.20;99.90;;;;;;5098370;28;20451;-47
2022/03/26 00:21:25;;;;;;;30.47;14.77;;;11.20;99.90;;;;;;5098087;28;20470;-49
2022/03/26 00:23:54;;;;;;;35.30;16.70;;;11.20;99.90;;;;;;5098109;28;20454;-52
2022/03/26 00:26:21;;;;;;;29.30;15.70;;;11.10;99.90;;;;;;5098164;28;20450;-49
2022/03/26 00:28:48;;;;;;;31.53;13.97;;;11.10;99.90;;;;;;5098601;28;20430;-54
2022/03/26 00:31:14;;;;;;;27.50;17.07;;;11.10;99.90;;;;;;5098522;28;20533;-56
2022/03/26 00:33:42;;;;;;;33.03;16.10;;;11.10;99.90;;;;;;5098198;28;20482;-50
2022/03/26 00:36:09;;;;;;;30.70;14.30;;;11.00;99.90;;;;;;5097763;28;20492;-51
2022/03/26 00:38:39;;;;;;;25.13;13.90;;;11.00;99.90;;;;;;5098247;28;20503;-53
2022/03/26 00:41:05;;;;;;;26.07;15.00;;;10.90;99.90;;;;;;5097959;28;20453;-52
2022/03/26 00:43:32;;;;;;;29.87;16.17;;;10.90;99.90;;;;;;5098252;28;20450;-54
2022/03/26 00:45:59;;;;;;;29.43;14.53;;;10.90;99.90;;;;;;5097463;28;20458;-51
2022/03/26 00:48:26;;;;;;;34.83;16.63;;;10.80;99.90;;;;;;5097611;28;20430;-50
2022/03/26 00:50:53;;;;;;;30.37;14.73;;;10.80;99.90;;;;;;5097722;28;20534;-52
2022/03/26 00:53:19;;;;;;;24.53;12.40;;;10.70;99.90;;;;;;5097764;28;20545;-49
2022/03/26 00:55:48;;;;;;;30.40;14.80;;;10.70;99.90;;;;;;5097656;28;20426;-48
2022/03/26 00:58:14;;;;;;;20.83;12.97;;;10.70;99.90;;;;;;5097887;28;20437;-50
2022/03/26 01:00:42;;;;;;;25.60;14.00;;;10.60;99.90;;;;;;5097359;28;20443;-48
2022/03/26 01:03:09;;;;;;;27.93;14.13;;;10.70;99.90;;;;;;5096963;28;20490;-53
2022/03/26 01:05:37;;;;;;;23.13;14.07;;;10.60;99.90;;;;;;5096617;28;20438;-47
2022/03/26 01:08:04;;;;;;;27.20;13.70;;;10.60;99.90;;;;;;5097327;28;20431;-53
2022/03/26 01:10:31;;;;;;;24.40;13.30;;;10.60;99.90;;;;;;5097430;28;20443;-51
2022/03/26 01:13:00;;;;;;;23.33;12.80;;;10.50;99.90;;;;;;5097334;28;20962;-51
2022/03/26 01:15:29;;;;;;;36.23;16.60;;;10.50;99.90;;;;;;5097664;28;20461;-51
2022/03/26 01:17:57;;;;;;;34.40;13.83;;;10.50;99.90;;;;;;5097248;28;20450;-52
2022/03/26 01:20:24;;;;;;;21.83;12.40;;;10.50;99.90;;;;;;5097300;28;20437;-48
2022/03/26 01:22:50;;;;;;;22.07;12.57;;;10.50;99.90;;;;;;5097283;28;20458;-49
2022/03/26 01:25:17;;;;;;;32.13;13.77;;;10.40;99.90;;;;;;5097436;28;20512;-53
2022/03/26 01:27:46;;;;;;;27.57;13.50;;;10.40;99.90;;;;;;5097364;28;20438;-48
2022/03/26 01:30:15;;;;;;;32.73;12.87;;;10.40;99.90;;;;;;5096753;28;20500;-52
2022/03/26 01:32:43;;;;;;;29.13;14.80;;;10.40;99.90;;;;;;5097006;28;20438;-59
2022/03/26 01:35:10;;;;;;;25.60;13.60;;;10.30;99.90;;;;;;5096770;28;20426;-52
2022/03/26 01:37:38;;;;;;;26.17;13.50;;;10.30;99.90;;;;;;5096820;28;20528;-58
2022/03/26 01:40:09;;;;;;;27.60;14.33;;;10.30;99.90;;;;;;5097092;28;20446;-62
2022/03/26 01:42:35;;;;;;;32.00;16.60;;;10.30;99.90;;;;;;5096842;28;20470;-51
2022/03/26 01:45:02;;;;;;;27.00;14.27;;;10.30;99.90;;;;;;5097005;28;20464;-50
2022/03/26 01:47:30;;;;;;;29.20;12.70;;;10.30;99.90;;;;;;5096669;28;20470;-50
2022/03/26 01:49:57;;;;;;;28.57;14.27;;;10.30;99.90;;;;;;5096871;28;20455;-51
2022/03/26 01:52:25;;;;;;;24.63;13.83;;;10.20;99.90;;;;;;5096427;28;20485;-47
2022/03/26 01:54:52;;;;;;;33.87;15.37;;;10.20;99.90;;;;;;5096664;28;20411;-45
2022/03/26 01:57:19;;;;;;;29.67;14.67;;;10.20;99.90;;;;;;5096104;28;20468;-53
2022/03/26 01:59:45;;;;;;;26.87;13.93;;;10.20;99.90;;;;;;5096276;28;20467;-50
2022/03/26 02:02:12;;;;;;;28.43;12.70;;;10.20;99.90;;;;;;5096493;28;20462;-52
2022/03/26 02:04:40;;;;;;;29.77;13.73;;;10.20;99.90;;;;;;5095795;28;20465;-55
2022/03/26 02:07:07;;;;;;;28.87;13.50;;;10.20;99.90;;;;;;5096287;28;20450;-46
2022/03/26 02:09:35;;;;;;;30.70;15.50;;;10.20;99.90;;;;;;5096266;28;20438;-55
2022/03/26 02:12:03;;;;;;;34.53;15.80;;;10.20;99.90;;;;;;5095953;28;20462;-61
2022/03/26 02:14:30;;;;;;;27.80;14.53;;;10.20;99.90;;;;;;5096336;28;20447;-51
2022/03/26 02:16:57;;;;;;;30.40;13.90;;;10.20;99.90;;;;;;5096083;28;20473;-47
2022/03/26 02:19:23;;;;;;;33.67;15.03;;;10.10;99.90;;;;;;5096418;28;20484;-52
2022/03/26 02:21:52;;;;;;;27.93;15.20;;;10.20;99.90;;;;;;5096572;28;20496;-58
2022/03/26 02:24:19;;;;;;;28.20;14.37;;;10.20;99.90;;;;;;5096518;28;20462;-49
2022/03/26 02:26:46;;;;;;;29.10;15.63;;;10.10;99.90;;;;;;5096628;28;20530;-50
2022/03/26 02:29:13;;;;;;;27.67;13.83;;;10.10;99.90;;;;;;5096416;28;20446;-52
2022/03/26 02:31:40;;;;;;;41.13;16.87;;;10.10;99.90;;;;;;5096158;28;20510;-51
2022/03/26 02:34:08;;;;;;;27.77;14.17;;;10.10;99.90;;;;;;5096588;28;20445;-50
2022/03/26 02:36:35;;;;;;;30.30;13.47;;;10.10;99.90;;;;;;5096615;28;20894;-46
2022/03/26 02:39:06;;;;;;;32.60;14.87;;;10.00;99.90;;;;;;5096160;28;20411;-50
2022/03/26 02:41:36;;;;;;;31.30;16.07;;;10.00;99.90;;;;;;5096049;28;20426;-50
2022/03/26 02:44:03;;;;;;;24.40;14.47;;;10.00;99.90;;;;;;5095792;28;20476;-48
2022/03/26 02:46:30;;;;;;;41.07;15.83;;;10.00;99.90;;;;;;5095852;28;20442;-54
2022/03/26 02:48:56;;;;;;;34.03;13.70;;;10.10;99.90;;;;;;5095769;28;20427;-49
2022/03/26 02:51:23;;;;;;;32.47;16.70;;;10.10;99.90;;;;;;5095778;28;20438;-50
2022/03/26 02:53:50;;;;;;;27.73;15.40;;;10.10;99.90;;;;;;5095992;28;20464;-45
2022/03/26 02:56:19;;;;;;;32.70;14.03;;;10.10;99.90;;;;;;5095708;28;20468;-50
2022/03/26 02:58:46;;;;;;;28.60;14.67;;;10.10;99.90;;;;;;5096174;28;20511;-52
2022/03/26 03:01:13;;;;;;;35.60;15.93;;;10.10;99.90;;;;;;5095555;28;20461;-55
2022/03/26 03:03:41;;;;;;;26.37;15.00;;;10.10;99.90;;;;;;5095395;28;20473;-51
2022/03/26 03:06:11;;;;;;;33.33;14.03;;;10.00;99.90;;;;;;5095695;28;20438;-47
2022/03/26 03:08:39;;;;;;;28.73;15.93;;;10.00;99.90;;;;;;5095460;28;20476;-49
2022/03/26 03:11:07;;;;;;;32.03;14.80;;;10.00;99.90;;;;;;5095297;28;20480;-46
2022/03/26 03:13:35;;;;;;;33.57;15.20;;;10.00;99.90;;;;;;5095164;28;20469;-49
2022/03/26 03:16:02;;;;;;;28.40;16.03;;;10.00;99.90;;;;;;5095674;28;20447;-51
2022/03/26 03:18:29;;;;;;;31.40;14.43;;;9.90;99.90;;;;;;5095916;28;20434;-48
2022/03/26 03:20:56;;;;;;;36.33;16.63;;;9.90;99.90;;;;;;5095158;28;20442;-49
2022/03/26 03:23:23;;;;;;;28.50;13.73;;;9.90;99.90;;;;;;5095026;28;20478;-50
2022/03/26 03:25:51;;;;;;;29.50;13.93;;;9.80;99.90;;;;;;5095479;28;20450;-51
2022/03/26 03:28:18;;;;;;;29.33;15.17;;;9.80;99.90;;;;;;5097551;28;20474;-52
2022/03/26 03:30:46;;;;;;;30.00;15.87;;;9.90;99.90;;;;;;5099322;28;20464;-50
2022/03/26 03:33:13;;;;;;;41.67;16.67;;;9.90;99.90;;;;;;5098803;28;20488;-50
2022/03/26 03:35:39;;;;;;;25.07;14.90;;;9.90;99.90;;;;;;5098804;28;20456;-51
2022/03/26 03:38:06;;;;;;;22.10;14.67;;;9.80;99.90;;;;;;5098722;28;20989;-52
2022/03/26 03:40:34;;;;;;;36.50;17.20;;;9.80;99.90;;;;;;5098588;28;20422;-53
2022/03/26 03:43:00;;;;;;;32.30;16.60;;;9.70;99.90;;;;;;5098429;28;20939;-49
2022/03/26 03:45:27;;;;;;;36.80;16.13;;;9.70;99.90;;;;;;5098668;28;20469;-51
2022/03/26 03:47:55;;;;;;;26.93;14.77;;;9.70;99.90;;;;;;5098875;28;20462;-51
2022/03/26 03:50:22;;;;;;;35.13;17.23;;;9.70;99.90;;;;;;5098709;28;20443;-51
2022/03/26 03:52:50;;;;;;;28.60;15.70;;;9.70;99.90;;;;;;5098337;28;20462;-56
2022/03/26 03:55:17;;;;;;;33.23;15.40;;;9.60;99.90;;;;;;5098600;28;20442;-59
2022/03/26 03:57:45;;;;;;;27.57;16.20;;;9.60;99.90;;;;;;5098681;28;20466;-53
2022/03/26 04:00:13;;;;;;;33.77;16.33;;;9.60;99.90;;;;;;5098008;28;20418;-51
2022/03/26 04:02:40;;;;;;;29.40;16.40;;;9.50;99.90;;;;;;5098194;28;20542;-55
2022/03/26 04:05:16;;;;;;;30.63;16.77;;;9.50;99.90;;;;;;5098217;28;20523;-52
2022/03/26 04:07:44;;;;;;;28.60;14.93;;;9.50;99.90;;;;;;5097751;28;20473;-53
2022/03/26 04:10:11;;;;;;;29.90;15.90;;;9.50;99.90;;;;;;5097836;28;20426;-65
2022/03/26 04:12:42;;;;;;;38.27;16.90;;;9.40;99.90;;;;;;5098505;28;20466;-49
2022/03/26 04:15:09;;;;;;;30.83;16.57;;;9.50;99.90;;;;;;5097936;28;20444;-53
2022/03/26 04:17:37;;;;;;;31.30;18.07;;;9.40;99.90;;;;;;5098109;28;20471;-47
2022/03/26 04:20:06;;;;;;;31.67;16.77;;;9.40;99.90;;;;;;5098058;28;20473;-51
2022/03/26 04:22:34;;;;;;;37.37;17.60;;;9.40;99.90;;;;;;5097283;28;20481;-52
2022/03/26 04:25:00;;;;;;;31.57;16.43;;;9.30;99.90;;;;;;5097778;28;20473;-56
2022/03/26 04:27:29;;;;;;;37.90;17.43;;;9.20;99.90;;;;;;5098164;28;20439;-47
2022/03/26 04:29:56;;;;;;;32.60;16.67;;;9.20;99.90;;;;;;5097499;28;20427;-49
2022/03/26 04:32:23;;;;;;;32.37;16.67;;;9.20;99.90;;;;;;5098086;28;20510;-49
2022/03/26 04:34:50;;;;;;;36.30;16.93;;;9.10;99.90;;;;;;5098179;28;20453;-53
2022/03/26 04:37:19;;;;;;;31.80;17.23;;;9.10;99.90;;;;;;5097518;28;20476;-52
2022/03/26 04:39:48;;;;;;;29.73;16.47;;;9.00;99.90;;;;;;5097458;28;20476;-51
2022/03/26 04:42:15;;;;;;;36.87;18.40;;;9.00;99.90;;;;;;5097251;28;20426;-53
2022/03/26 04:44:42;;;;;;;37.67;17.20;;;9.10;99.90;;;;;;5097127;28;20488;-55
2022/03/26 04:47:09;;;;;;;37.33;15.47;;;9.00;99.90;;;;;;5097426;28;20462;-50
2022/03/26 04:49:36;;;;;;;32.57;17.40;;;8.90;99.90;;;;;;5096933;28;20446;-56
2022/03/26 04:52:03;;;;;;;33.83;16.87;;;8.90;99.90;;;;;;5096367;28;20442;-51
2022/03/26 04:54:29;;;;;;;26.73;16.63;;;8.90;99.90;;;;;;5096537;28;20489;-50
2022/03/26 04:56:57;;;;;;;38.87;17.70;;;8.90;99.90;;;;;;5096914;28;20442;-48
2022/03/26 04:59:24;;;;;;;34.23;17.07;;;8.80;99.90;;;;;;5096726;28;20457;-53
2022/03/26 05:01:51;;;;;;;30.50;17.80;;;8.70;99.90;;;;;;5096725;28;20489;-52
2022/03/26 05:04:17;;;;;;;38.43;16.43;;;8.70;99.90;;;;;;5096240;28;20477;-54
2022/03/26 05:06:45;;;;;;;37.63;18.87;;;8.80;99.90;;;;;;5096696;28;20503;-53
2022/03/26 05:09:11;;;;;;;32.57;16.70;;;8.80;99.90;;;;;;5096631;28;20454;-52
2022/03/26 05:11:40;;;;;;;34.13;18.70;;;8.80;99.90;;;;;;5096367;28;20455;-61
2022/03/26 05:14:08;;;;;;;34.87;17.77;;;8.90;99.90;;;;;;5096446;28;20509;-51
2022/03/26 05:16:35;;;;;;;37.10;18.83;;;8.80;99.90;;;;;;5096233;28;20504;-52
2022/03/26 05:19:03;;;;;;;38.00;18.27;;;8.80;99.90;;;;;;5096302;28;20463;-52
2022/03/26 05:21:30;;;;;;;47.53;18.97;;;8.80;99.90;;;;;;5096543;28;20427;-49
2022/03/26 05:23:56;;;;;;;46.60;21.07;;;8.80;99.90;;;;;;5096279;28;20473;-51
2022/03/26 05:26:23;;;;;;;31.17;17.47;;;8.80;99.90;;;;;;5096890;28;20439;-51
2022/03/26 05:28:50;;;;;;;38.57;18.97;;;8.80;99.90;;;;;;5095800;28;20537;-51
2022/03/26 05:31:18;;;;;;;37.63;18.20;;;8.80;99.90;;;;;;5095976;28;20438;-51
2022/03/26 05:33:45;;;;;;;42.03;19.67;;;8.80;99.90;;;;;;5096282;28;20479;-50
2022/03/26 05:36:18;;;;;;;44.23;20.43;;;8.80;99.90;;;;;;5096308;28;20489;-49
2022/03/26 05:38:44;;;;;;;35.73;18.00;;;8.90;99.90;;;;;;5094904;28;20466;-50
2022/03/26 05:41:11;;;;;;;40.90;18.73;;;8.90;99.90;;;;;;5096313;28;20419;-48
2022/03/26 05:43:38;;;;;;;39.97;20.17;;;8.90;99.90;;;;;;5095771;28;20852;-52
2022/03/26 05:46:05;;;;;;;31.93;16.27;;;8.90;99.90;;;;;;5095704;28;20429;-52
2022/03/26 05:48:33;;;;;;;40.50;18.80;;;8.90;99.90;;;;;;5095058;28;20484;-52
2022/03/26 05:50:59;;;;;;;41.33;19.83;;;8.80;99.90;;;;;;5094830;28;20439;-49
2022/03/26 05:53:27;;;;;;;35.30;16.90;;;8.80;99.90;;;;;;5095557;28;20454;-54
2022/03/26 05:55:56;;;;;;;38.30;21.50;;;8.80;99.90;;;;;;5095456;28;20462;-52
2022/03/26 05:58:23;;;;;;;49.07;20.30;;;8.80;99.90;;;;;;5095391;28;20446;-55
2022/03/26 06:00:49;;;;;;;42.20;17.73;;;8.80;99.90;;;;;;5095159;28;20522;-52
2022/03/26 06:03:17;;;;;;;41.03;20.77;;;8.70;99.90;;;;;;5095109;28;20446;-52
2022/03/26 06:05:45;;;;;;;31.80;18.23;;;8.70;99.90;;;;;;5095118;28;20423;-55
2022/03/26 06:08:12;;;;;;;45.00;19.57;;;8.70;99.90;;;;;;5095412;28;20442;-54
2022/03/26 06:10:38;;;;;;;36.87;19.03;;;8.70;99.90;;;;;;5095413;28;20481;-50
2022/03/26 06:13:05;;;;;;;39.73;19.73;;;8.80;99.90;;;;;;5095236;28;20468;-48
2022/03/26 06:15:35;;;;;;;38.77;20.97;;;8.80;99.90;;;;;;5095695;28;20474;-52
2022/03/26 06:18:01;;;;;;;35.63;17.77;;;8.90;99.90;;;;;;5095353;28;20430;-50
2022/03/26 06:20:28;;;;;;;37.40;17.90;;;8.90;99.90;;;;;;5095385;28;20480;-53
2022/03/26 06:22:59;;;;;;;33.53;17.70;;;8.90;99.90;;;;;;5094994;28;20892;-49
2022/03/26 06:25:26;;;;;;;39.67;19.30;;;8.90;99.90;;;;;;5095610;28;20427;-48
2022/03/26 06:27:54;;;;;;;32.57;17.43;;;8.90;99.90;;;;;;5095140;28;20454;-47
2022/03/26 06:30:20;;;;;;;36.50;18.57;;;8.90;99.90;;;;;;5095787;28;20446;-46
2022/03/26 06:32:49;;;;;;;44.33;20.13;;;9.00;99.90;;;;;;5095150;28;20434;-54
2022/03/26 06:35:15;;;;;;;38.70;18.83;;;9.00;99.90;;;;;;5095232;28;20470;-50
2022/03/26 06:37:42;;;;;;;38.57;20.00;;;9.00;99.90;;;;;;5094685;28;20438;-46
2022/03/26 06:40:11;;;;;;;42.67;20.73;;;9.10;99.90;;;;;;5094761;28;20512;-48
2022/03/26 06:42:38;;;;;;;37.20;18.53;;;9.10;99.90;;;;;;5094881;28;20442;-55
2022/03/26 06:45:05;;;;;;;33.73;17.87;;;9.60;99.90;;;;;;5095270;28;20467;-52
2022/03/26 06:47:32;;;;;;;32.23;14.40;;;9.20;99.90;;;;;;5094917;28;20448;-53
2022/03/26 06:49:58;;;;;;;34.20;18.67;;;9.30;99.90;;;;;;5094675;28;20458;-53
2022/03/26 06:52:25;;;;;;;33.43;16.90;;;9.40;99.90;;;;;;5095145;28;20431;-52
2022/03/26 06:54:52;;;;;;;33.90;17.17;;;9.40;99.90;;;;;;5095357;28;20479;-52
2022/03/26 06:57:21;;;;;;;37.50;15.37;;;9.50;99.90;;;;;;5095039;28;20449;-51
2022/03/26 06:59:47;;;;;;;36.50;16.33;;;9.50;99.90;;;;;;5095193;28;20471;-53
2022/03/26 07:02:17;;;;;;;36.60;18.60;;;9.60;99.90;;;;;;5096168;28;20450;-55
2022/03/26 07:04:43;;;;;;;36.30;16.90;;;9.80;99.90;;;;;;5099194;28;20488;-51
2022/03/26 07:07:13;;;;;;;31.50;18.10;;;9.80;99.90;;;;;;5099035;28;20438;-48
2022/03/26 07:09:40;;;;;;;33.30;17.10;;;9.80;99.90;;;;;;5098964;28;20462;-50
2022/03/26 07:12:07;;;;;;;35.33;17.93;;;9.90;99.90;;;;;;5099266;28;20430;-49
2022/03/26 07:14:38;;;;;;;36.33;16.53;;;10.00;99.90;;;;;;5099655;28;20584;-52
2022/03/26 07:17:05;;;;;;;41.73;18.67;;;10.20;99.90;;;;;;5099242;28;20414;-50
2022/03/26 07:19:32;;;;;;;37.03;18.80;;;10.30;99.90;;;;;;5098801;28;20476;-46
2022/03/26 07:21:59;;;;;;;36.63;16.33;;;10.40;99.90;;;;;;5099052;28;20445;-55
2022/03/26 07:24:25;;;;;;;27.73;17.30;;;10.50;99.90;;;;;;5099378;28;20450;-52
2022/03/26 07:26:52;;;;;;;28.73;16.63;;;10.60;99.90;;;;;;5098860;28;20433;-54
2022/03/26 07:29:19;;;;;;;36.20;17.53;;;10.70;99.90;;;;;;5098951;28;20480;-52
2022/03/26 07:31:47;;;;;;;35.57;16.53;;;10.70;99.90;;;;;;5099125;28;20465;-51
2022/03/26 07:34:20;;;;;;;30.90;16.40;;;10.80;99.90;;;;;;5099391;28;20453;-48
2022/03/26 07:36:48;;;;;;;32.30;15.50;;;10.90;99.90;;;;;;5098890;28;20414;-50
2022/03/26 07:39:17;;;;;;;30.37;16.73;;;11.00;99.90;;;;;;5099469;28;20442;-53
2022/03/26 07:41:45;;;;;;;27.40;15.60;;;11.10;99.90;;;;;;5099020;28;20445;-55
2022/03/26 07:44:12;;;;;;;34.00;16.90;;;11.20;99.90;;;;;;5098703;28;20435;-49
2022/03/26 07:46:40;;;;;;;34.40;17.90;;;11.00;99.90;;;;;;5098703;28;20430;-55
2022/03/26 07:49:09;;;;;;;25.23;14.83;;;11.20;99.90;;;;;;5098595;28;20456;-43
2022/03/26 07:51:35;;;;;;;29.83;16.80;;;11.20;99.90;;;;;;5097988;28;20455;-50
2022/03/26 07:54:02;;;;;;;29.13;17.57;;;11.30;99.90;;;;;;5098519;28;20731;-52
2022/03/26 07:56:29;;;;;;;32.50;17.20;;;11.30;99.90;;;;;;5098407;28;20482;-51
2022/03/26 07:58:58;;;;;;;32.07;16.87;;;11.40;99.90;;;;;;5098698;28;20435;-49
2022/03/26 08:01:24;;;;;;;31.97;16.93;;;11.40;99.90;;;;;;5098877;28;20442;-52
2022/03/26 08:03:54;;;;;;;32.60;16.47;;;11.50;99.90;;;;;;5098356;28;20434;-48
2022/03/26 08:06:22;;;;;;;35.83;15.73;;;11.60;99.90;;;;;;5098424;28;20486;-48
2022/03/26 08:08:49;;;;;;;33.23;16.63;;;11.60;99.90;;;;;;5098325;28;20446;-52
2022/03/26 08:11:17;;;;;;;19.33;10.70;;;11.60;99.90;;;;;;5098342;28;20468;-54
2022/03/26 08:13:44;;;;;;;30.00;14.60;;;11.70;99.90;;;;;;5098188;28;20439;-56
2022/03/26 08:16:11;;;;;;;23.40;13.40;;;11.70;99.90;;;;;;5097790;28;20489;-50
2022/03/26 08:18:38;;;;;;;32.97;16.67;;;11.70;99.90;;;;;;5097798;28;20450;-51
2022/03/26 08:21:09;;;;;;;30.53;16.23;;;11.70;99.90;;;;;;5097400;28;20466;-53
2022/03/26 08:23:38;;;;;;;28.00;15.70;;;11.90;99.90;;;;;;5097999;28;20431;-49
2022/03/26 08:26:22;;;;;;;27.40;14.53;;;12.20;99.90;;;;;;5097972;28;20458;-50
2022/03/26 08:28:49;;;;;;;27.27;14.90;;;13.10;99.90;;;;;;5098408;28;20435;-49
2022/03/26 08:31:17;;;;;;;30.17;17.13;;;14.60;99.90;;;;;;5097965;28;20463;-51
2022/03/26 08:33:47;;;;;;;27.40;13.20;;;16.10;99.90;;;;;;5098119;28;20458;-48
2022/03/26 08:36:15;;;;;;;24.93;14.60;;;17.90;99.90;;;;;;5098639;28;20485;-48
2022/03/26 08:38:45;;;;;;;26.67;15.13;;;19.10;95.80;;;;;;5098458;28;20434;-50
2022/03/26 08:41:12;;;;;;;25.30;14.70;;;19.90;90.90;;;;;;5098590;28;20457;-50
2022/03/26 08:43:39;;;;;;;25.60;13.83;;;20.40;86.60;;;;;;5098409;28;20453;-51
2022/03/26 08:46:06;;;;;;;23.37;14.00;;;20.60;81.90;;;;;;5097885;28;20969;-51
2022/03/26 08:48:32;;;;;;;23.23;12.93;;;20.90;80.40;;;;;;5098165;28;20418;-52
2022/03/26 08:51:00;;;;;;;20.73;14.47;;;21.40;77.00;;;;;;5098224;28;20488;-51
2022/03/26 08:53:27;;;;;;;18.70;12.83;;;21.70;74.90;;;;;;5098265;28;20511;-48
2022/03/26 08:55:55;;;;;;;20.67;13.63;;;22.30;72.00;;;;;;5097542;28;20496;-46
2022/03/26 08:58:22;;;;;;;20.47;15.50;;;23.00;66.80;;;;;;5097650;28;20438;-47
2022/03/26 09:00:51;;;;;;;15.63;12.27;;;23.00;65.50;;;;;;5096888;28;20474;-49
2022/03/26 09:03:20;;;;;;;22.20;14.27;;;22.20;64.40;;;;;;5097177;28;20448;-49
2022/03/26 09:05:47;;;;;;;20.93;13.13;;;21.20;67.90;;;;;;5096419;28;20454;-55
2022/03/26 09:08:13;;;;;;;26.80;13.70;;;20.40;68.90;;;;;;5096689;28;20430;-53
2022/03/26 09:10:40;;;;;;;20.60;12.77;;;19.30;72.10;;;;;;5096449;28;20516;-53
2022/03/26 09:13:08;;;;;;;30.03;13.73;;;18.50;75.70;;;;;;5096941;28;20433;-56
2022/03/26 09:15:36;;;;;;;18.27;12.40;;;17.90;79.00;;;;;;5096434;28;20466;-55
2022/03/26 09:18:02;;;;;;;20.30;11.60;;;17.70;81.40;;;;;;5096691;28;20431;-49
2022/03/26 09:20:30;;;;;;;18.23;12.27;;;17.40;82.80;;;;;;5096060;28;20481;-54
2022/03/26 09:22:57;;;;;;;23.57;11.33;;;17.00;86.30;;;;;;5095938;28;20438;-52
2022/03/26 09:25:24;;;;;;;19.23;11.53;;;17.10;88.00;;;;;;5096038;28;20451;-49
2022/03/26 09:27:51;;;;;;;22.27;12.83;;;17.60;87.30;;;;;;5096809;28;20438;-51
2022/03/26 09:30:19;;;;;;;19.90;11.73;;;18.00;85.60;;;;;;5096442;28;20470;-55
2022/03/26 09:32:46;;;;;;;22.77;11.37;;;18.40;84.40;;;;;;5096285;28;20439;-46
2022/03/26 09:35:18;;;;;;;18.53;12.13;;;19.00;83.60;;;;;;5095899;28;20474;-51
2022/03/26 09:37:48;;;;;;;18.27;11.23;;;19.40;81.20;;;;;;5096465;28;20445;-53
2022/03/26 09:40:15;;;;;;;15.93;10.90;;;19.50;80.20;;;;;;5096468;28;20465;-54
2022/03/26 09:42:42;;;;;;;19.40;11.97;;;19.30;80.40;;;;;;5096407;28;20431;-51
2022/03/26 09:45:09;;;;;;;18.80;11.93;;;18.80;81.80;;;;;;5096404;28;20449;-51
2022/03/26 09:47:38;;;;;;;17.73;11.43;;;18.00;84.60;;;;;;5096248;28;20423;-55
2022/03/26 09:50:07;;;;;;;19.30;11.43;;;17.40;87.40;;;;;;5096174;28;20468;-47
2022/03/26 09:52:35;;;;;;;22.37;10.73;;;16.90;90.10;;;;;;5096209;28;20467;-51
2022/03/26 09:55:11;;;;;;;20.00;10.83;;;16.40;91.90;;;;;;5095409;28;20446;-52
2022/03/26 09:57:38;;;;;;;16.77;11.40;;;16.20;93.60;;;;;;5095287;28;20422;-50
2022/03/26 10:00:06;;;;;;;18.80;9.13;;;16.00;94.70;;;;;;5095538;28;20435;-53
2022/03/26 10:02:34;;;;;;;16.80;10.17;;;15.90;96.40;;;;;;5095813;28;20442;-49
2022/03/26 10:05:04;;;;;;;16.80;9.00;;;15.80;98.50;;;;;;5095796;28;20453;-50
2022/03/26 10:07:31;;;;;;;17.57;9.20;;;15.70;99.90;;;;;;5095689;28;20430;-47
2022/03/26 10:09:58;;;;;;;13.63;9.17;;;15.70;99.90;;;;;;5095605;28;20442;-48
2022/03/26 10:12:26;;;;;;;20.70;10.27;;;15.60;99.90;;;;;;5095967;28;20481;-48
2022/03/26 10:14:54;;;;;;;18.60;9.47;;;15.50;99.90;;;;;;5095948;28;20462;-47
2022/03/26 10:17:25;;;;;;;18.40;11.70;;;15.50;99.90;;;;;;5095848;28;20474;-48
2022/03/26 10:19:53;;;;;;;13.73;8.90;;;15.50;99.90;;;;;;5095601;28;20468;-48
2022/03/26 10:22:29;;;;;;;24.33;11.93;;;15.50;99.90;;;;;;5095713;28;20466;-49
2022/03/26 10:25:03;;;;;;;15.30;9.80;;;15.60;99.90;;;;;;5095931;28;20450;-50
2022/03/26 10:27:36;;;;;;;17.97;9.67;;;15.60;99.90;;;;;;5095885;28;20432;-47
2022/03/26 10:30:03;;;;;;;16.07;10.90;;;15.50;99.90;;;;;;5095588;28;20439;-49
2022/03/26 10:32:45;;;;;;;20.40;12.17;;;15.50;99.90;;;;;;5095882;28;20449;-49
2022/03/26 10:35:16;;;;;;;23.03;12.20;;;15.60;99.90;;;;;;5095717;28;20414;-50
2022/03/26 10:37:56;;;;;;;16.80;10.53;;;15.80;99.90;;;;;;5099643;28;20415;-45
2022/03/26 10:40:28;;;;;;;17.83;11.37;;;15.70;99.90;;;;;;5100521;28;20437;-53
2022/03/26 10:43:01;;;;;;;19.63;11.37;;;15.60;99.90;;;;;;5100108;28;20482;-54
2022/03/26 10:45:29;;;;;;;19.13;11.27;;;15.40;99.90;;;;;;5100139;28;20422;-57
2022/03/26 10:47:58;;;;;;;23.87;11.80;;;15.40;99.90;;;;;;5099489;28;20480;-50
2022/03/26 10:50:25;;;;;;;19.27;11.27;;;15.30;99.90;;;;;;5099533;28;20450;-52
2022/03/26 10:52:56;;;;;;;16.80;9.77;;;15.30;99.90;;;;;;5098935;28;20440;-51
2022/03/26 10:55:25;;;;;;;23.60;12.43;;;15.30;99.90;;;;;;5099360;28;20418;-57
2022/03/26 10:57:52;;;;;;;15.83;9.83;;;15.30;99.90;;;;;;5098967;28;20511;-52
2022/03/26 11:00:20;;;;;;;21.97;10.87;;;15.30;99.90;;;;;;5099021;28;20464;-50
2022/03/26 11:02:47;;;;;;;18.80;10.50;;;15.20;99.90;;;;;;5098338;28;20492;-55
2022/03/26 11:05:14;;;;;;;25.00;11.30;;;15.10;99.90;;;;;;5098945;28;20485;-52
2022/03/26 11:07:41;;;;;;;22.83;12.60;;;15.10;99.90;;;;;;5098899;28;20981;-49
2022/03/26 11:10:12;;;;;;;24.47;10.57;;;15.10;99.90;;;;;;5098073;28;20442;-50
2022/03/26 11:12:44;;;;;;;28.00;10.70;;;15.20;99.90;;;;;;5098900;28;20447;-50
2022/03/26 11:15:14;;;;;;;22.97;12.50;;;15.10;99.90;;;;;;5098504;28;20423;-47
2022/03/26 11:17:55;;;;;;;24.20;11.17;;;15.00;99.90;;;;;;5098409;28;20536;-53
2022/03/26 11:20:57;;;;;;;24.00;14.67;;;15.00;99.90;;;;;;5098365;28;20454;-49
2022/03/26 11:23:41;;;;;;;22.17;12.07;;;15.10;99.90;;;;;;5098590;28;20441;-52
2022/03/26 11:26:23;;;;;;;20.40;11.20;;;15.10;99.90;;;;;;5098149;28;20498;-51
2022/03/26 11:29:17;;;;;;;18.30;11.57;;;15.00;99.90;;;;;;5098402;28;20434;-51
2022/03/26 11:31:49;;;;;;;21.73;12.80;;;15.00;99.90;;;;;;5098079;28;20466;-54
2022/03/26 11:34:18;;;;;;;27.00;13.87;;;15.20;99.90;;;;;;5098446;28;20453;-52
2022/03/26 11:36:50;;;;;;;24.47;13.60;;;15.20;99.90;;;;;;5098213;28;20504;-48
2022/03/26 11:39:18;;;;;;;22.57;12.00;;;15.30;99.90;;;;;;5098592;28;20423;-50
2022/03/26 11:41:47;;;;;;;27.37;13.37;;;15.50;99.90;;;;;;5098333;28;20450;-52
2022/03/26 11:44:16;;;;;;;30.70;13.83;;;15.50;99.90;;;;;;5098653;28;20433;-49
2022/03/26 11:52:22;;;;;;;24.47;12.77;;;15.70;99.90;;;;;;5098429;28;20450;-49
2022/03/26 11:54:54;;;;;;;23.30;12.30;;;15.70;99.90;;;;;;5098592;28;20451;-52
2022/03/26 11:57:24;;;;;;;22.93;12.60;;;15.80;99.90;;;;;;5097902;28;20882;-49
2022/03/26 11:59:52;;;;;;;21.47;12.97;;;15.90;99.90;;;;;;5097917;28;20444;-49
2022/03/26 12:02:21;;;;;;;22.23;13.73;;;16.00;99.90;;;;;;5097605;28;20465;-50
2022/03/26 12:04:58;;;;;;;23.17;12.50;;;15.80;99.90;;;;;;5097702;28;20469;-53
2022/03/26 12:07:28;;;;;;;25.10;13.37;;;15.60;99.90;;;;;;5097914;28;20442;-49
2022/03/26 12:10:10;;;;;;;27.63;14.50;;;15.30;99.90;;;;;;5097479;28;20476;-48
2022/03/26 12:13:00;;;;;;;25.47;12.13;;;15.20;99.90;;;;;;5097852;28;20918;-49
2022/03/26 12:15:30;;;;;;;28.43;14.10;;;15.10;99.90;;;;;;5098044;28;20441;-52
2022/03/26 12:18:11;;;;;;;22.63;13.93;;;14.80;99.90;;;;;;5097691;28;20451;-50
2022/03/26 12:20:40;;;;;;;26.87;12.93;;;14.70;99.90;;;;;;5097662;28;20481;-53
2022/03/26 12:23:10;;;;;;;24.00;14.33;;;14.70;99.90;;;;;;5097587;28;20470;-47
2022/03/26 12:25:46;;;;;;;29.00;14.80;;;14.60;99.90;;;;;;5098104;28;20450;-51
2022/03/26 12:28:15;;;;;;;24.30;13.50;;;14.60;99.90;;;;;;5098142;28;20474;-52
2022/03/26 12:30:47;;;;;;;28.07;13.80;;;14.70;99.90;;;;;;5097785;28;20438;-48
2022/03/26 12:33:14;;;;;;;28.30;15.87;;;14.70;99.90;;;;;;5097539;28;20470;-49
2022/03/26 12:35:44;;;;;;;33.53;15.60;;;14.70;99.90;;;;;;5097312;28;20473;-54
2022/03/26 12:38:11;;;;;;;28.07;15.97;;;14.70;99.90;;;;;;5097037;28;20481;-52
2022/03/26 12:40:39;;;;;;;30.87;15.90;;;14.80;99.90;;;;;;5096702;28;20441;-49
2022/03/26 12:43:11;;;;;;;35.90;17.67;;;14.80;99.90;;;;;;5097145;28;20461;-55